createdAt,value
2018-07-13T00:00:10.282Z,4.07
2018-07-13T00:02:38.521Z,4.47
2018-07-13T00:05:07.042Z,4.33
2018-07-13T00:07:35.419Z,4.23
2018-07-13T00:10:03.743Z,4.13
2018-07-13T00:12:32.056Z,4.27
2018-07-13T00:15:08.312Z,4.07
2018-07-13T00:17:36.624Z,4.00
2018-07-13T00:20:05.229Z,3.83
2018-07-13T00:22:33.639Z,4.20
2018-07-13T00:25:01.858Z,4.77
2018-07-13T00:27:30.083Z,4.57
2018-07-13T00:29:58.411Z,4.07
2018-07-13T00:32:26.667Z,4.63
2018-07-13T00:34:55.174Z,4.67
2018-07-13T00:37:23.434Z,3.67
2018-07-13T00:39:51.723Z,4.70
2018-07-13T00:42:19.954Z,4.73
2018-07-13T00:44:48.235Z,5.07
2018-07-13T00:47:16.506Z,4.23
2018-07-13T00:49:44.779Z,4.43
2018-07-13T00:52:12.999Z,4.37
2018-07-13T00:54:41.478Z,4.37
2018-07-13T00:57:09.686Z,4.10
2018-07-13T00:59:37.913Z,4.37
2018-07-13T01:02:06.360Z,4.00
2018-07-13T01:04:34.600Z,4.10
2018-07-13T01:07:02.886Z,4.10
2018-07-13T01:09:31.134Z,4.60
2018-07-13T01:11:59.138Z,4.27
2018-07-13T01:14:27.371Z,3.90
2018-07-13T01:16:55.593Z,4.83
2018-07-13T01:19:23.833Z,4.13
2018-07-13T01:21:52.071Z,4.60
2018-07-13T01:24:20.363Z,3.90
2018-07-13T01:26:48.678Z,5.10
2018-07-13T01:29:16.910Z,4.23
2018-07-13T01:31:45.232Z,4.40
2018-07-13T01:34:13.486Z,3.93
2018-07-13T01:36:41.880Z,3.80
2018-07-13T01:39:12.144Z,4.30
2018-07-13T01:41:40.898Z,4.20
2018-07-13T01:44:09.204Z,4.03
2018-07-13T01:46:37.498Z,4.83
2018-07-13T01:49:05.994Z,4.47
2018-07-13T01:51:34.291Z,4.03
2018-07-13T01:54:02.794Z,3.90
2018-07-13T01:56:31.062Z,4.97
2018-07-13T01:58:59.337Z,4.20
2018-07-13T02:01:27.696Z,4.43
2018-07-13T02:03:55.996Z,4.20
2018-07-13T02:06:24.267Z,3.70
2018-07-13T02:08:52.687Z,4.83
2018-07-13T02:11:20.935Z,4.67
2018-07-13T02:13:49.580Z,4.70
2018-07-13T02:16:17.928Z,4.53
2018-07-13T02:18:46.186Z,4.23
2018-07-13T02:21:14.524Z,4.43
2018-07-13T02:23:43.131Z,5.07
2018-07-13T02:26:11.379Z,4.83
2018-07-13T02:28:39.671Z,3.87
2018-07-13T02:31:07.966Z,4.70
2018-07-13T02:33:36.278Z,4.20
2018-07-13T02:36:04.753Z,4.57
2018-07-13T02:38:32.782Z,4.20
2018-07-13T02:41:01.067Z,4.90
2018-07-13T02:43:29.387Z,5.07
2018-07-13T02:45:57.618Z,5.03
2018-07-13T02:48:25.949Z,5.47
2018-07-13T02:50:54.230Z,4.43
2018-07-13T02:53:22.592Z,5.40
2018-07-13T02:55:50.852Z,4.90
2018-07-13T02:58:19.190Z,5.80
2018-07-13T03:00:47.479Z,4.67
2018-07-13T03:03:15.747Z,4.90
2018-07-13T03:05:44.000Z,4.67
2018-07-13T03:08:12.228Z,4.40
2018-07-13T03:10:40.475Z,4.73
2018-07-13T03:13:08.751Z,4.70
2018-07-13T03:15:37.047Z,5.57
2018-07-13T03:18:05.330Z,5.80
2018-07-13T03:20:33.594Z,5.80
2018-07-13T03:23:02.014Z,5.83
2018-07-13T03:25:30.308Z,6.27
2018-07-13T03:27:58.858Z,5.73
2018-07-13T03:30:27.097Z,6.17
2018-07-13T03:32:55.325Z,6.07
2018-07-13T03:35:23.554Z,6.37
2018-07-13T03:37:51.975Z,6.63
2018-07-13T03:40:20.255Z,6.00
2018-07-13T03:42:48.477Z,5.67
2018-07-13T03:45:16.770Z,5.93
2018-07-13T03:47:45.286Z,5.40
2018-07-13T03:50:13.584Z,5.07
2018-07-13T03:52:41.826Z,4.60
2018-07-13T03:55:10.102Z,5.47
2018-07-13T03:57:38.370Z,5.10
2018-07-13T04:00:06.660Z,5.30
2018-07-13T04:02:34.913Z,5.77
2018-07-13T04:05:03.123Z,5.60
2018-07-13T04:07:31.399Z,5.90
2018-07-13T04:09:59.696Z,5.93
2018-07-13T04:12:27.934Z,5.33
2018-07-13T04:14:56.219Z,5.90
2018-07-13T04:17:24.459Z,5.83
2018-07-13T04:19:52.677Z,5.53
2018-07-13T04:22:21.058Z,5.67
2018-07-13T04:24:49.376Z,5.87
2018-07-13T04:27:17.649Z,5.67
2018-07-13T04:29:46.014Z,5.50
2018-07-13T04:32:14.300Z,5.57
2018-07-13T04:34:42.666Z,5.63
2018-07-13T04:37:11.080Z,5.47
2018-07-13T04:39:39.073Z,6.37
2018-07-13T04:42:07.647Z,6.47
2018-07-13T04:44:35.948Z,5.97
2018-07-13T04:47:04.205Z,6.17
2018-07-13T04:49:32.482Z,5.60
2018-07-13T04:52:00.723Z,6.97
2018-07-13T04:54:28.781Z,6.23
2018-07-13T04:56:57.456Z,5.90
2018-07-13T04:59:25.717Z,5.77
2018-07-13T05:01:53.968Z,6.30
2018-07-13T05:04:21.938Z,6.00
2018-07-13T05:06:50.364Z,4.97
2018-07-13T05:09:18.629Z,5.10
2018-07-13T05:11:47.007Z,5.43
2018-07-13T05:14:15.229Z,5.37
2018-07-13T05:16:43.507Z,4.67
2018-07-13T05:19:11.807Z,5.47
2018-07-13T05:21:40.037Z,5.20
2018-07-13T05:24:08.443Z,5.07
2018-07-13T05:26:36.585Z,4.57
2018-07-13T05:29:04.967Z,4.67
2018-07-13T05:31:33.400Z,4.33
2018-07-13T05:34:01.698Z,4.00
2018-07-13T05:36:30.386Z,4.23
2018-07-13T05:38:58.685Z,3.87
2018-07-13T05:41:27.030Z,4.23
2018-07-13T05:43:55.110Z,3.90
2018-07-13T05:46:23.562Z,3.50
2018-07-13T05:48:51.923Z,4.03
2018-07-13T05:51:19.954Z,4.07
2018-07-13T05:53:48.278Z,4.23
2018-07-13T05:56:16.747Z,4.03
2018-07-13T05:58:45.139Z,3.27
2018-07-13T06:01:13.555Z,2.83
2018-07-13T06:03:42.118Z,3.33
2018-07-13T06:06:10.460Z,3.50
2018-07-13T06:08:38.787Z,3.70
2018-07-13T06:11:07.288Z,3.60
2018-07-13T06:13:35.661Z,3.20
2018-07-13T06:16:04.011Z,3.10
2018-07-13T06:18:32.738Z,2.83
2018-07-13T06:21:01.167Z,3.03
2018-07-13T06:23:29.376Z,3.13
2018-07-13T06:25:57.691Z,2.67
2018-07-13T06:28:26.002Z,2.83
2018-07-13T06:30:54.062Z,2.70
2018-07-13T06:33:22.398Z,2.67
2018-07-13T06:35:50.751Z,2.90
2018-07-13T06:38:18.988Z,2.37
2018-07-13T06:40:48.166Z,2.50
2018-07-13T06:43:16.867Z,2.67
2018-07-13T06:45:45.189Z,2.73
2018-07-13T06:48:13.866Z,2.37
2018-07-13T06:50:42.292Z,2.00
2018-07-13T06:53:13.839Z,2.07
2018-07-13T06:55:42.247Z,2.83
2018-07-13T06:58:22.071Z,2.43
2018-07-13T07:00:54.523Z,2.63
2018-07-13T07:03:23.456Z,2.20
2018-07-13T07:05:58.236Z,2.20
2018-07-13T07:08:26.725Z,2.23
2018-07-13T07:10:55.028Z,2.27
2018-07-13T07:13:31.266Z,2.30
2018-07-13T07:15:59.797Z,1.87
2018-07-13T07:18:28.261Z,1.83
2018-07-13T07:20:57.125Z,1.97
2018-07-13T07:23:25.555Z,1.97
2018-07-13T07:25:54.671Z,2.17
2018-07-13T07:28:22.802Z,2.37
2018-07-13T07:30:51.660Z,2.70
2018-07-13T07:33:20.154Z,2.53
2018-07-13T07:35:48.489Z,2.33
2018-07-13T07:38:16.842Z,2.10
2018-07-13T07:40:45.285Z,2.70
2018-07-13T07:43:13.400Z,2.23
2018-07-13T07:45:41.663Z,2.00
2018-07-13T07:48:10.020Z,2.17
2018-07-13T07:50:38.396Z,2.40
2018-07-13T07:53:06.917Z,2.07
2018-07-13T07:55:34.930Z,2.27
2018-07-13T07:58:03.284Z,2.47
2018-07-13T08:00:31.862Z,2.40
2018-07-13T08:03:00.104Z,2.10
2018-07-13T08:05:28.470Z,2.57
2018-07-13T08:07:56.993Z,2.50
2018-07-13T08:10:25.331Z,2.13
2018-07-13T08:12:53.616Z,2.60
2018-07-13T08:15:21.914Z,3.37
2018-07-13T08:17:50.437Z,2.50
2018-07-13T08:20:21.043Z,2.30
2018-07-13T08:22:54.592Z,2.43
2018-07-13T08:25:23.552Z,2.80
2018-07-13T08:27:54.206Z,2.17
2018-07-13T08:30:28.543Z,2.70
2018-07-13T08:32:56.812Z,2.00
2018-07-13T08:35:25.111Z,2.53
2018-07-13T08:37:53.698Z,2.10
2018-07-13T08:40:24.048Z,2.67
2018-07-13T08:42:52.606Z,2.40
2018-07-13T08:45:20.680Z,2.20
2018-07-13T08:47:49.261Z,1.90
2018-07-13T08:50:17.963Z,2.00
2018-07-13T08:52:46.447Z,2.30
2018-07-13T08:55:15.751Z,2.27
2018-07-13T08:57:45.723Z,2.50
2018-07-13T09:00:14.014Z,2.43
2018-07-13T09:02:42.495Z,1.90
2018-07-13T09:05:11.060Z,2.27
2018-07-13T09:07:39.452Z,2.13
2018-07-13T09:10:08.977Z,2.43
2018-07-13T09:12:37.479Z,2.47
2018-07-13T09:15:06.171Z,2.20
2018-07-13T09:17:34.657Z,2.37
2018-07-13T09:20:02.938Z,1.97
2018-07-13T09:22:31.257Z,2.40
2018-07-13T09:24:59.509Z,2.37
2018-07-13T09:27:27.806Z,2.20
2018-07-13T09:29:56.039Z,3.03
2018-07-13T09:32:24.352Z,2.83
2018-07-13T09:34:52.680Z,2.60
2018-07-13T09:37:20.674Z,2.47
2018-07-13T09:39:49.052Z,2.53
2018-07-13T09:42:17.440Z,2.80
2018-07-13T09:44:45.690Z,2.27
2018-07-13T09:47:13.920Z,2.70
2018-07-13T09:49:42.209Z,3.00
2018-07-13T09:52:10.190Z,3.10
2018-07-13T09:54:38.527Z,2.90
2018-07-13T09:57:06.820Z,2.80
2018-07-13T09:59:35.052Z,2.70
2018-07-13T10:02:03.324Z,2.63
2018-07-13T10:04:31.571Z,3.00
2018-07-13T10:06:59.605Z,2.87
2018-07-13T10:09:27.847Z,2.90
2018-07-13T10:11:56.170Z,3.10
2018-07-13T10:14:24.525Z,2.80
2018-07-13T10:16:52.941Z,3.63
2018-07-13T10:19:21.212Z,3.43
2018-07-13T10:21:49.856Z,3.23
2018-07-13T10:24:19.587Z,2.93
2018-07-13T10:26:47.915Z,3.20
2018-07-13T10:29:18.317Z,2.70
2018-07-13T10:31:46.609Z,2.67
2018-07-13T10:34:16.442Z,3.00
2018-07-13T10:36:49.097Z,2.60
2018-07-13T10:39:17.521Z,3.30
2018-07-13T10:41:45.819Z,2.80
2018-07-13T10:44:14.115Z,3.07
2018-07-13T10:46:42.542Z,3.07
2018-07-13T10:49:10.891Z,3.10
2018-07-13T10:51:39.290Z,3.60
2018-07-13T10:54:07.472Z,3.03
2018-07-13T10:56:35.848Z,2.97
2018-07-13T10:59:03.937Z,3.00
2018-07-13T11:01:31.985Z,3.10
2018-07-13T11:04:00.271Z,3.53
2018-07-13T11:06:28.542Z,3.23
2018-07-13T11:08:56.828Z,3.37
2018-07-13T11:11:25.238Z,3.13
2018-07-13T11:18:46.138Z,3.50
2018-07-13T11:21:15.073Z,3.97
2018-07-13T11:23:43.582Z,3.30
2018-07-13T11:26:12.329Z,3.43
2018-07-13T11:28:41.445Z,3.57
2018-07-13T11:31:10.313Z,3.63
2018-07-13T11:33:38.788Z,4.00
2018-07-13T11:36:07.310Z,4.17
2018-07-13T11:38:35.784Z,3.50
2018-07-13T11:41:04.347Z,3.50
2018-07-13T11:43:33.009Z,3.73
2018-07-13T11:46:01.483Z,4.00
2018-07-13T11:48:29.925Z,4.00
2018-07-13T11:50:58.345Z,3.57
2018-07-13T11:53:28.345Z,3.47
2018-07-13T11:55:57.274Z,3.43
2018-07-13T11:58:26.046Z,3.23
2018-07-13T12:00:54.860Z,3.10
2018-07-13T12:03:23.256Z,3.63
2018-07-13T12:05:51.652Z,3.50
2018-07-13T12:08:20.144Z,3.20
2018-07-13T12:10:48.656Z,3.47
2018-07-13T12:13:17.142Z,3.13
2018-07-13T12:15:46.121Z,3.30
2018-07-13T12:18:14.620Z,3.00
2018-07-13T12:20:43.425Z,3.33
2018-07-13T12:23:12.038Z,2.97
2018-07-13T12:25:40.634Z,3.60
2018-07-13T12:28:09.140Z,3.37
2018-07-13T12:30:38.528Z,3.50
2018-07-13T12:33:06.941Z,3.10
2018-07-13T12:35:35.507Z,3.43
2018-07-13T12:38:03.968Z,3.60
2018-07-13T12:40:32.806Z,2.60
2018-07-13T12:43:01.445Z,2.83
2018-07-13T12:45:29.907Z,3.57
2018-07-13T12:47:58.549Z,3.10
2018-07-13T12:50:27.096Z,2.53
2018-07-13T12:52:55.557Z,2.90
2018-07-13T12:55:26.421Z,2.70
2018-07-13T12:57:55.075Z,3.67
2018-07-13T13:00:23.702Z,3.03
2018-07-13T13:02:52.469Z,3.00
2018-07-13T13:05:21.840Z,3.07
2018-07-13T13:07:50.922Z,2.97
2018-07-13T13:10:19.361Z,2.83
2018-07-13T13:12:48.166Z,3.20
2018-07-13T13:15:16.818Z,3.03
2018-07-13T13:17:45.573Z,2.87
2018-07-13T13:20:14.042Z,2.60
2018-07-13T13:22:43.152Z,2.97
2018-07-13T13:25:11.530Z,3.20
2018-07-13T13:27:39.968Z,2.97
2018-07-13T13:30:08.548Z,2.63
2018-07-13T13:32:37.193Z,2.67
2018-07-13T13:35:05.957Z,2.60
2018-07-13T13:37:34.548Z,2.50
2018-07-13T13:40:03.234Z,3.17
2018-07-13T13:42:31.761Z,2.60
2018-07-13T13:45:18.100Z,2.97
2018-07-13T13:47:46.832Z,2.90
2018-07-13T13:50:15.446Z,2.80
2018-07-13T13:52:44.211Z,2.70
2018-07-13T13:55:12.698Z,2.47
2018-07-13T13:57:41.415Z,2.60
2018-07-13T14:00:09.956Z,2.57
2018-07-13T14:02:38.726Z,2.50
2018-07-13T14:05:07.353Z,2.60
2018-07-13T14:07:35.927Z,2.60
2018-07-13T14:10:04.523Z,2.20
2018-07-13T14:12:32.969Z,2.47
2018-07-13T14:15:01.501Z,2.40
2018-07-13T14:17:30.012Z,2.63
2018-07-13T14:19:58.446Z,2.50
2018-07-13T14:22:26.829Z,2.33
2018-07-13T14:24:55.681Z,2.37
2018-07-13T14:27:24.312Z,2.77
2018-07-13T14:29:53.021Z,2.70
2018-07-13T14:32:21.416Z,2.63
2018-07-13T14:34:49.840Z,2.23
2018-07-13T14:37:18.462Z,2.73
2018-07-13T14:41:16.800Z,2.80
2018-07-13T14:43:45.307Z,2.23
2018-07-13T14:46:13.899Z,2.53
2018-07-13T14:48:42.617Z,2.50
2018-07-13T14:51:11.204Z,2.67
2018-07-13T14:53:39.801Z,2.37
2018-07-13T14:56:08.360Z,2.40
2018-07-13T14:58:36.765Z,2.60
2018-07-13T15:01:05.658Z,2.50
2018-07-13T15:03:34.539Z,2.70
2018-07-13T15:06:03.501Z,2.77
2018-07-13T15:08:32.954Z,2.30
2018-07-13T15:11:01.420Z,2.30
2018-07-13T15:13:29.936Z,2.17
2018-07-13T15:15:58.506Z,2.27
2018-07-13T15:18:27.776Z,2.50
2018-07-13T15:20:56.779Z,2.30
2018-07-13T15:23:25.199Z,2.43
2018-07-13T15:25:54.471Z,2.53
2018-07-13T15:28:23.100Z,2.27
2018-07-13T15:30:51.916Z,2.67
2018-07-13T15:33:21.621Z,2.40
2018-07-13T15:35:50.078Z,2.87
2018-07-13T15:38:18.520Z,2.47
2018-07-13T15:40:47.200Z,3.17
2018-07-13T15:43:15.682Z,2.70
2018-07-13T15:48:10.267Z,2.20
2018-07-13T15:50:39.134Z,2.70
2018-07-13T15:53:08.397Z,2.90
2018-07-13T15:55:42.868Z,2.40
2018-07-13T15:58:11.742Z,2.30
2018-07-13T16:00:40.634Z,2.50
2018-07-13T16:03:09.971Z,2.20
2018-07-13T16:05:39.136Z,2.20
2018-07-13T16:08:08.726Z,2.50
2018-07-13T16:10:37.547Z,2.40
2018-07-13T16:13:07.493Z,2.00
2018-07-13T16:15:45.488Z,2.53
2018-07-13T16:18:14.930Z,2.40
2018-07-13T16:20:43.997Z,2.30
2018-07-13T16:23:13.108Z,2.73
2018-07-13T16:25:42.336Z,2.60
2018-07-13T16:28:11.451Z,2.60
2018-07-13T16:30:40.304Z,2.07
2018-07-13T16:33:10.979Z,2.80
2018-07-13T16:35:39.659Z,2.83
2018-07-13T16:38:08.585Z,2.83
2018-07-13T16:40:38.130Z,3.07
2018-07-13T16:43:07.014Z,3.10
2018-07-13T16:45:35.919Z,2.43
2018-07-13T16:48:05.012Z,2.43
2018-07-13T16:50:33.845Z,2.90
2018-07-13T16:53:02.488Z,2.53
2018-07-13T16:55:32.164Z,2.27
2018-07-13T16:58:03.435Z,2.57
2018-07-13T17:00:32.531Z,2.30
2018-07-13T17:03:01.745Z,2.93
2018-07-13T17:05:30.409Z,2.40
2018-07-13T17:08:00.326Z,2.30
2018-07-13T17:10:29.151Z,2.50
2018-07-13T17:12:58.126Z,2.73
2018-07-13T17:15:26.814Z,2.43
2018-07-13T17:17:56.605Z,2.40
2018-07-13T17:20:25.731Z,2.40
2018-07-13T17:22:54.450Z,2.43
2018-07-13T17:25:23.114Z,2.30
2018-07-13T17:27:52.119Z,2.37
2018-07-13T17:30:20.814Z,2.47
2018-07-13T17:32:49.669Z,2.57
2018-07-13T17:35:18.665Z,2.63
2018-07-13T17:37:47.949Z,2.83
2018-07-13T17:40:18.064Z,2.30
2018-07-13T17:42:47.068Z,2.50
2018-07-13T17:45:15.792Z,2.90
2018-07-13T17:47:46.698Z,2.50
2018-07-13T17:50:17.166Z,2.73
2018-07-13T17:52:46.359Z,2.60
2018-07-13T17:55:15.142Z,2.93
2018-07-13T17:57:44.486Z,3.30
2018-07-13T18:00:15.944Z,2.50
2018-07-13T18:02:45.300Z,2.53
2018-07-13T18:05:14.410Z,2.63
2018-07-13T18:07:44.532Z,2.23
2018-07-13T18:10:13.975Z,2.27
2018-07-13T18:12:43.646Z,2.37
2018-07-13T18:15:13.222Z,2.40
2018-07-13T18:17:42.274Z,2.13
2018-07-13T18:20:11.328Z,2.27
2018-07-13T18:22:41.171Z,2.13
2018-07-13T18:25:10.045Z,2.50
2018-07-13T18:27:39.031Z,2.53
2018-07-13T18:30:08.643Z,2.40
2018-07-13T18:32:37.519Z,2.47
2018-07-13T18:35:06.590Z,3.00
2018-07-13T18:37:36.599Z,2.20
2018-07-13T18:40:05.584Z,2.30
2018-07-13T18:42:34.563Z,2.37
2018-07-13T18:45:03.996Z,2.43
2018-07-13T18:47:34.201Z,2.43
2018-07-13T18:50:03.819Z,2.10
2018-07-13T18:52:36.186Z,2.53
2018-07-13T18:55:06.775Z,2.00
2018-07-13T19:43:41.367Z,3.00
2018-07-13T19:46:10.592Z,2.43
2018-07-13T19:48:39.281Z,2.43
2018-07-13T19:51:09.347Z,2.77
2018-07-13T19:53:38.115Z,2.73
2018-07-13T19:56:07.019Z,2.90
2018-07-13T19:58:35.721Z,2.30
2018-07-13T20:01:04.971Z,2.60
2018-07-13T20:03:36.987Z,2.30
2018-07-13T20:06:38.188Z,2.37
2018-07-13T20:09:08.171Z,2.27
2018-07-13T20:11:36.781Z,2.33
2018-07-13T20:14:05.394Z,2.63
2018-07-13T20:17:01.263Z,2.20
2018-07-13T20:19:51.083Z,2.23
2018-07-13T20:22:20.777Z,2.43
2018-07-13T20:24:49.744Z,2.30
2018-07-13T20:27:18.282Z,2.40
2018-07-13T20:29:47.979Z,2.30
2018-07-13T20:32:16.437Z,2.50
2018-07-13T20:35:11.717Z,2.53
2018-07-13T20:37:42.038Z,2.30
2018-07-13T20:40:10.699Z,2.20
2018-07-13T20:42:39.428Z,2.60
2018-07-13T20:45:08.275Z,2.10
2018-07-13T20:47:36.980Z,2.20
2018-07-13T20:50:05.739Z,2.33
2018-07-13T20:52:34.474Z,2.40
2018-07-13T20:55:03.171Z,2.03
2018-07-13T20:57:43.890Z,2.87
2018-07-13T21:00:12.486Z,2.30
2018-07-13T21:02:42.208Z,2.13
2018-07-13T21:05:12.092Z,2.07
2018-07-13T21:07:40.913Z,2.27
2018-07-13T21:10:09.798Z,2.33
2018-07-13T21:12:38.519Z,2.00
2018-07-13T21:15:07.500Z,2.20
2018-07-13T21:17:36.262Z,2.37
2018-07-13T21:20:04.783Z,2.17
2018-07-13T21:22:33.325Z,2.20
2018-07-13T21:25:02.238Z,1.93
2018-07-13T21:27:31.173Z,1.83
2018-07-13T21:30:21.097Z,2.03
2018-07-13T21:32:49.928Z,2.60
2018-07-13T21:35:18.411Z,2.27
2018-07-13T21:37:47.338Z,2.20
2018-07-13T21:40:16.039Z,2.53
2018-07-13T21:42:44.968Z,2.43
2018-07-13T21:45:14.536Z,2.67
2018-07-13T21:47:51.151Z,2.40
2018-07-13T21:50:21.299Z,2.60
2018-07-13T21:52:54.081Z,2.70
2018-07-13T21:55:26.811Z,2.97
2018-07-13T21:57:56.982Z,2.70
2018-07-13T22:00:26.651Z,2.90
2018-07-13T22:02:55.451Z,2.93
2018-07-13T22:05:24.211Z,3.27
2018-07-13T22:07:53.140Z,3.37
2018-07-13T22:10:21.600Z,3.50
2018-07-13T22:12:50.201Z,4.03
2018-07-13T22:15:18.805Z,3.50
2018-07-13T22:17:47.332Z,3.70
2018-07-13T22:20:15.781Z,3.80
2018-07-13T22:22:44.400Z,4.17
2018-07-13T22:25:12.995Z,3.60
2018-07-13T22:27:41.439Z,3.90
2018-07-13T22:30:10.015Z,4.17
2018-07-13T22:32:38.490Z,4.10
2018-07-13T22:35:07.220Z,3.80
2018-07-13T22:37:35.923Z,4.53
2018-07-13T22:40:05.322Z,4.37
2018-07-13T22:42:33.834Z,4.53
2018-07-13T22:45:02.420Z,4.47
2018-07-13T22:47:30.883Z,4.40
2018-07-13T22:49:59.372Z,4.50
2018-07-13T22:52:27.955Z,4.37
2018-07-13T22:54:56.645Z,4.10
2018-07-13T22:57:25.823Z,4.33
2018-07-13T22:59:54.581Z,4.27
2018-07-13T23:02:23.104Z,4.23
2018-07-13T23:04:51.526Z,4.07
2018-07-13T23:07:19.998Z,4.70
2018-07-13T23:09:48.726Z,4.43
2018-07-13T23:12:17.251Z,4.17
2018-07-13T23:14:45.981Z,4.40
2018-07-13T23:17:14.615Z,4.20
2018-07-13T23:19:43.013Z,4.17
2018-07-13T23:22:11.675Z,4.00
2018-07-13T23:24:40.097Z,4.37
2018-07-13T23:27:08.649Z,4.53
2018-07-13T23:29:37.265Z,3.80
2018-07-13T23:32:05.755Z,3.87
2018-07-13T23:34:34.245Z,3.87
2018-07-13T23:37:03.114Z,4.13
2018-07-13T23:39:31.556Z,3.83
2018-07-13T23:42:00.229Z,3.83
2018-07-13T23:44:28.868Z,4.10
2018-07-13T23:46:57.427Z,4.07
2018-07-13T23:49:26.095Z,3.73
2018-07-13T23:51:54.616Z,4.00
2018-07-13T23:54:23.129Z,3.60
2018-07-13T23:56:51.568Z,3.87
2018-07-13T23:59:20.030Z,3.97
